Time;durP1;ratioP1;P1;durP2;ratioP2;P2;SDS_P1;SDS_P2;PMS_P1;PMS_P2;Temp;Humidity;BMP_temperature;BMP_pressure;BME280_temperature;BME280_humidity;BME280_pressure;Samples;Min_cycle;Max_cycle;Signal;HPM_P1;HPM_P2
2023/01/13 00:03:53;;;;;;;22.73;18.48;;;8.20;86.20;;;;;;10945589;32;20046;-74
2023/01/13 00:09:55;;;;;;;23.80;18.58;;;8.10;86.30;;;;;;10945480;32;20023;-74
2023/01/13 00:16:20;;;;;;;25.33;18.98;;;8.20;86.50;;;;;;10931693;32;20035;-74
2023/01/13 00:22:28;;;;;;;22.58;18.25;;;8.30;86.20;;;;;;10934141;27;20434;-74
2023/01/13 00:28:30;;;;;;;21.58;18.40;;;8.40;85.90;;;;;;10889382;32;20054;-74
2023/01/13 00:34:33;;;;;;;22.73;20.27;;;8.50;85.70;;;;;;10906865;32;20291;-74
2023/01/13 00:40:35;;;;;;;27.20;22.45;;;8.50;85.80;;;;;;10893305;32;20023;-74
2023/01/13 00:46:37;;;;;;;23.83;20.85;;;8.60;85.90;;;;;;10906466;32;20038;-74
2023/01/13 00:52:39;;;;;;;31.37;23.77;;;8.60;85.70;;;;;;10906391;32;20024;-74
2023/01/13 00:58:42;;;;;;;24.95;18.95;;;8.50;85.80;;;;;;10892514;32;20033;-74
2023/01/13 01:04:44;;;;;;;26.75;21.73;;;8.40;85.90;;;;;;10905840;32;20394;-74
2023/01/13 01:10:46;;;;;;;26.42;21.00;;;8.40;85.80;;;;;;10905757;32;20386;-74
2023/01/13 01:16:49;;;;;;;31.40;25.88;;;8.60;86.00;;;;;;10905519;32;20073;-74
2023/01/13 01:22:51;;;;;;;24.90;21.52;;;8.60;85.80;;;;;;10905221;32;20042;-74
2023/01/13 01:28:54;;;;;;;27.48;24.12;;;8.50;85.60;;;;;;10905071;32;20046;-74
2023/01/13 01:34:55;;;;;;;23.62;19.27;;;8.40;85.70;;;;;;10891461;32;20016;-74
2023/01/13 01:40:58;;;;;;;19.10;16.23;;;8.40;85.60;;;;;;10904760;32;20457;-74
2023/01/13 01:47:00;;;;;;;23.45;18.25;;;8.30;85.70;;;;;;10904717;32;20382;-74
2023/01/13 01:53:13;;;;;;;23.85;18.50;;;8.40;85.70;;;;;;10904571;32;20023;-74
2023/01/13 01:59:15;;;;;;;23.35;16.65;;;8.20;85.60;;;;;;10905569;32;20015;-74
2023/01/13 02:05:18;;;;;;;23.87;20.35;;;8.00;86.00;;;;;;10890885;32;20085;-74
2023/01/13 02:18:02;;;;;;;26.83;20.23;;;8.20;86.50;;;;;;10897897;32;20070;-74
2023/01/13 02:24:55;;;;;;;30.30;25.73;;;8.00;86.20;;;;;;10911408;32;20020;-74
2023/01/13 02:37:35;;;;;;;20.52;17.92;;;8.20;86.30;;;;;;10911001;32;20019;-74
2023/01/13 02:50:09;;;;;;;25.62;21.98;;;8.20;86.00;;;;;;10910563;32;20057;-75
2023/01/13 02:56:13;;;;;;;23.67;20.73;;;8.20;86.00;;;;;;10910380;32;20057;-75
2023/01/13 03:02:20;;;;;;;20.73;18.10;;;8.20;85.90;;;;;;10910069;32;20015;-75
2023/01/13 03:08:28;;;;;;;29.75;22.17;;;8.10;85.90;;;;;;10908162;32;20015;-74
2023/01/13 03:14:53;;;;;;;25.50;20.95;;;8.10;85.90;;;;;;10909734;32;20053;-74
2023/01/13 03:21:05;;;;;;;24.30;20.05;;;8.20;86.00;;;;;;10895463;32;20038;-74
2023/01/13 03:27:34;;;;;;;20.80;17.77;;;8.10;85.90;;;;;;10883176;32;20311;-74
2023/01/13 03:34:00;;;;;;;25.50;19.80;;;7.90;85.80;;;;;;10909299;32;20023;-74
2023/01/13 03:40:26;;;;;;;26.50;22.98;;;7.90;86.00;;;;;;10904896;32;20067;-74
2023/01/13 03:46:45;;;;;;;27.35;23.48;;;7.90;85.90;;;;;;10902609;32;20082;-74
2023/01/13 03:52:57;;;;;;;23.33;18.33;;;8.00;85.70;;;;;;10895186;32;20514;-74
2023/01/13 03:59:03;;;;;;;21.75;19.15;;;8.00;85.60;;;;;;10908180;32;20038;-74
2023/01/13 04:05:08;;;;;;;25.80;20.90;;;8.10;85.90;;;;;;10894652;32;20019;-74
2023/01/13 04:11:45;;;;;;;23.58;21.00;;;8.20;86.30;;;;;;10907815;32;20023;-74
2023/01/13 04:17:47;;;;;;;25.60;21.87;;;8.30;86.20;;;;;;10716725;33;20025;-74
2023/01/13 04:23:50;;;;;;;26.08;19.50;;;8.40;86.20;;;;;;10718884;33;20036;-74
2023/01/13 04:29:52;;;;;;;23.35;20.67;;;8.50;85.90;;;;;;10719777;33;20024;-74
2023/01/13 04:35:54;;;;;;;23.17;19.45;;;8.50;85.60;;;;;;10718977;33;20029;-74
2023/01/13 04:41:56;;;;;;;22.98;20.55;;;8.50;85.50;;;;;;10707269;33;20025;-74
2023/01/13 04:47:58;;;;;;;25.33;18.83;;;8.60;85.10;;;;;;10718983;33;20199;-74
2023/01/13 04:54:00;;;;;;;22.23;19.77;;;8.50;85.10;;;;;;10844425;32;20046;-74
2023/01/13 05:00:08;;;;;;;21.20;16.75;;;8.60;84.90;;;;;;10892505;32;20330;-74
2023/01/13 05:06:09;;;;;;;23.02;18.37;;;8.70;84.60;;;;;;10905620;32;20349;-74
2023/01/13 05:18:33;;;;;;;21.60;17.20;;;9.00;84.60;;;;;;10905275;32;20398;-74
2023/01/13 05:30:56;;;;;;;21.58;19.17;;;9.00;84.00;;;;;;10905020;32;20031;-75
2023/01/13 05:36:57;;;;;;;21.20;17.25;;;9.10;84.00;;;;;;10901181;32;20019;-74
2023/01/13 05:43:18;;;;;;;21.45;18.42;;;9.10;83.80;;;;;;10904593;32;20031;-74
2023/01/13 05:49:20;;;;;;;18.83;15.73;;;9.10;83.70;;;;;;10904401;32;20057;-74
2023/01/13 05:55:22;;;;;;;19.23;16.42;;;9.20;83.70;;;;;;10904488;32;20193;-74
2023/01/13 06:01:24;;;;;;;26.02;18.10;;;9.20;83.40;;;;;;10904035;32;20415;-74
2023/01/13 06:07:25;;;;;;;27.87;22.27;;;9.20;83.30;;;;;;10899883;32;20338;-74
2023/01/13 06:13:27;;;;;;;23.00;18.25;;;9.20;83.20;;;;;;10891869;32;20016;-74
2023/01/13 06:19:29;;;;;;;23.42;20.58;;;9.30;82.90;;;;;;10899713;32;20392;-74
2023/01/13 06:25:41;;;;;;;19.50;15.38;;;9.20;82.70;;;;;;10902215;32;20032;-74
2023/01/13 06:31:43;;;;;;;20.70;17.95;;;9.30;82.60;;;;;;10902941;32;20050;-75
2023/01/13 06:37:55;;;;;;;17.25;14.90;;;9.20;82.70;;;;;;10903511;32;20023;-75
2023/01/13 06:43:57;;;;;;;16.20;14.13;;;9.20;82.90;;;;;;10903276;32;20031;-75
2023/01/13 06:49:59;;;;;;;19.50;15.90;;;9.40;83.00;;;;;;10889620;32;20085;-75
2023/01/13 06:56:00;;;;;;;23.10;16.42;;;9.30;82.90;;;;;;10902841;32;20019;-75
2023/01/13 07:02:03;;;;;;;23.42;18.33;;;9.40;82.90;;;;;;10900186;32;20402;-75
2023/01/13 07:08:06;;;;;;;16.95;13.95;;;9.60;83.10;;;;;;10902417;32;20038;-75
2023/01/13 07:20:29;;;;;;;18.90;15.82;;;9.20;83.10;;;;;;10932419;32;20106;-75
2023/01/13 07:26:31;;;;;;;22.65;18.15;;;8.90;83.30;;;;;;10905408;32;20019;-75
2023/01/13 07:32:34;;;;;;;21.08;17.77;;;8.90;83.40;;;;;;10908768;32;20026;-75
2023/01/13 07:38:38;;;;;;;16.33;14.13;;;9.00;83.20;;;;;;10910213;32;20333;-75
2023/01/13 07:44:40;;;;;;;15.63;13.20;;;9.00;82.90;;;;;;10946448;32;20031;-75
2023/01/13 07:50:42;;;;;;;21.45;19.17;;;8.70;83.50;;;;;;10946258;32;20019;-75
2023/01/13 07:56:45;;;;;;;21.08;16.48;;;8.60;83.90;;;;;;10926666;32;20416;-75
2023/01/13 08:02:48;;;;;;;23.58;18.52;;;9.00;84.30;;;;;;10944964;32;20161;-75
2023/01/13 08:08:50;;;;;;;18.55;15.63;;;9.20;83.80;;;;;;10928175;32;20550;-75
2023/01/13 08:14:52;;;;;;;19.17;16.58;;;9.20;83.60;;;;;;10945368;32;20019;-75
2023/01/13 08:20:55;;;;;;;16.55;14.63;;;9.20;83.50;;;;;;10556580;27;12050502;-75
2023/01/13 08:26:57;;;;;;;19.42;16.25;;;9.10;83.40;;;;;;10734500;33;20029;-75
2023/01/13 08:32:59;;;;;;;17.58;13.38;;;9.00;83.90;;;;;;10750397;33;20493;-75
2023/01/13 08:39:01;;;;;;;26.52;22.67;;;8.90;83.80;;;;;;10749719;33;20387;-75
2023/01/13 08:45:13;;;;;;;26.75;21.95;;;8.90;84.60;;;;;;10749735;33;20332;-75
2023/01/13 08:51:22;;;;;;;20.88;18.30;;;9.10;84.40;;;;;;10737169;32;20032;-75
2023/01/13 08:57:24;;;;;;;22.97;17.50;;;9.30;84.40;;;;;;10737832;33;20051;-75
2023/01/13 09:03:26;;;;;;;22.42;19.17;;;9.40;84.10;;;;;;10739971;33;20047;-75
2023/01/13 09:09:28;;;;;;;19.80;15.95;;;9.30;84.30;;;;;;10739199;33;20435;-75
2023/01/13 09:15:30;;;;;;;25.73;22.08;;;9.30;84.60;;;;;;10752530;33;20394;-75
2023/01/13 09:21:32;;;;;;;36.13;25.58;;;9.50;84.80;;;;;;10749316;33;20025;-75
2023/01/13 09:27:34;;;;;;;24.20;20.62;;;9.70;84.80;;;;;;10752161;33;20025;-75
2023/01/13 09:40:25;;;;;;;21.27;15.68;;;10.00;85.00;;;;;;10750952;33;20055;-75
2023/01/13 09:46:46;;;;;;;21.58;16.27;;;10.20;84.90;;;;;;10741693;33;20071;-75
2023/01/13 09:52:48;;;;;;;19.95;13.98;;;10.10;84.80;;;;;;10712644;33;20187;-75
2023/01/13 09:58:51;;;;;;;14.38;12.07;;;9.80;85.00;;;;;;10714858;33;20052;-75
2023/01/13 10:05:16;;;;;;;14.48;11.52;;;9.70;85.70;;;;;;10714568;33;20029;-75
2023/01/13 10:17:48;;;;;;;16.70;12.88;;;9.50;85.90;;;;;;10714595;33;20017;-75
2023/01/13 10:24:06;;;;;;;17.90;13.85;;;9.70;86.30;;;;;;10699661;33;20049;-75
2023/01/13 10:30:30;;;;;;;13.98;10.02;;;9.40;86.00;;;;;;10711843;33;20025;-75
2023/01/13 10:36:58;;;;;;;16.67;13.60;;;9.30;86.60;;;;;;10719586;33;20047;-75
2023/01/13 10:43:05;;;;;;;17.52;14.25;;;9.50;86.90;;;;;;10720404;33;20029;-75
2023/01/13 10:49:35;;;;;;;15.18;11.90;;;9.80;86.80;;;;;;10720478;33;20016;-75
2023/01/13 10:55:37;;;;;;;16.10;12.48;;;10.00;86.70;;;;;;10720183;33;20400;-74
2023/01/13 11:01:42;;;;;;;14.55;9.80;;;10.10;86.70;;;;;;10719918;33;20057;-75
2023/01/13 11:07:49;;;;;;;17.50;13.27;;;10.20;86.60;;;;;;10717106;33;20033;-75
2023/01/13 11:20:21;;;;;;;14.65;10.63;;;10.30;86.60;;;;;;10737016;33;20036;-75
2023/01/13 11:26:35;;;;;;;14.05;10.23;;;10.50;87.00;;;;;;10746745;33;20091;-75
2023/01/13 11:33:11;;;;;;;13.07;8.75;;;10.40;86.70;;;;;;10720958;33;20017;-75
2023/01/13 11:39:25;;;;;;;10.25;7.40;;;10.20;87.00;;;;;;10706559;33;20066;-75
2023/01/13 11:45:32;;;;;;;13.55;9.73;;;10.20;87.50;;;;;;10721376;33;20340;-75
2023/01/13 11:51:55;;;;;;;12.30;9.25;;;10.60;87.10;;;;;;10718437;33;20044;-75
2023/01/13 11:58:12;;;;;;;13.98;10.10;;;10.90;87.10;;;;;;10705579;33;20059;-75
2023/01/13 12:04:39;;;;;;;11.70;7.55;;;11.00;87.30;;;;;;10715166;33;20338;-75
2023/01/13 12:10:56;;;;;;;11.65;9.55;;;11.20;87.60;;;;;;10717640;33;20047;-75
2023/01/13 12:17:00;;;;;;;13.10;9.48;;;11.10;87.80;;;;;;10734672;33;20036;-75
2023/01/13 12:23:09;;;;;;;20.52;12.43;;;11.20;87.90;;;;;;10740210;33;20036;-75
2023/01/13 12:29:17;;;;;;;14.27;11.10;;;11.20;87.80;;;;;;10753504;33;20024;-75
2023/01/13 12:35:28;;;;;;;11.77;8.60;;;11.20;88.00;;;;;;10753794;33;20063;-75
2023/01/13 12:44:15;;;;;;;14.60;9.68;;;11.20;87.80;;;;;;10753419;33;20017;-75
2023/01/13 12:48:05;;;;;;;11.95;9.18;;;11.10;87.70;;;;;;10753120;33;20029;-75
2023/01/13 12:54:32;;;;;;;14.32;8.40;;;10.90;88.10;;;;;;10752806;33;20445;-75
2023/01/13 13:01:10;;;;;;;11.95;8.05;;;10.90;88.10;;;;;;10752961;33;20039;-75
2023/01/13 13:07:22;;;;;;;11.75;7.45;;;11.00;87.60;;;;;;10752683;33;20056;-75
2023/01/13 13:13:47;;;;;;;10.60;7.68;;;10.60;88.00;;;;;;10752574;33;20025;-75
2023/01/13 13:19:49;;;;;;;17.23;13.95;;;10.70;88.50;;;;;;10751940;33;20028;-75
2023/01/13 13:26:16;;;;;;;18.02;12.50;;;10.80;88.30;;;;;;10752127;33;20047;-75
2023/01/13 13:32:42;;;;;;;17.33;11.45;;;10.90;88.10;;;;;;10753123;33;20037;-75
2023/01/13 13:52:19;;;;;;;16.50;12.07;;;10.50;88.00;;;;;;10752798;33;20025;-75
2023/01/13 13:58:25;;;;;;;17.15;13.45;;;10.50;88.50;;;;;;10751270;33;20047;-75
2023/01/13 14:04:35;;;;;;;14.68;10.50;;;10.50;88.50;;;;;;10750935;33;20075;-76
2023/01/13 14:10:39;;;;;;;17.77;13.57;;;10.50;88.40;;;;;;10746226;33;20046;-75
2023/01/13 14:16:41;;;;;;;12.57;9.93;;;10.60;88.90;;;;;;10750942;33;20021;-75
2023/01/13 14:23:17;;;;;;;13.93;10.82;;;11.00;88.40;;;;;;10750801;33;20051;-75
2023/01/13 14:29:22;;;;;;;16.35;13.48;;;11.00;88.20;;;;;;10750099;33;20060;-75
2023/01/13 14:35:24;;;;;;;18.15;12.18;;;11.20;88.30;;;;;;10749729;33;20024;-75
2023/01/13 14:41:28;;;;;;;16.67;13.30;;;11.20;87.70;;;;;;10749231;33;20020;-75
2023/01/13 14:47:32;;;;;;;14.13;11.50;;;11.20;88.00;;;;;;10743789;33;20079;-75
2023/01/13 14:53:44;;;;;;;13.13;10.40;;;11.40;88.20;;;;;;10747621;33;20029;-75
2023/01/13 15:00:00;;;;;;;14.73;11.32;;;11.50;88.20;;;;;;10747383;33;20047;-75
2023/01/13 15:06:24;;;;;;;16.55;11.98;;;11.20;88.00;;;;;;10737336;33;20059;-75
2023/01/13 15:12:39;;;;;;;15.93;11.90;;;10.70;88.40;;;;;;10741540;33;20346;-75
2023/01/13 15:18:41;;;;;;;16.75;13.30;;;10.40;88.80;;;;;;10717597;33;20021;-75
2023/01/13 15:24:43;;;;;;;20.77;16.25;;;10.40;88.90;;;;;;10721559;33;20032;-75
2023/01/13 15:30:48;;;;;;;22.35;16.20;;;10.50;88.80;;;;;;10752937;33;20359;-75
2023/01/13 15:36:50;;;;;;;19.77;16.00;;;10.50;88.40;;;;;;10751833;33;20040;-75
2023/01/13 15:49:33;;;;;;;22.50;19.08;;;10.30;88.40;;;;;;10750159;33;20032;-75
2023/01/13 15:55:37;;;;;;;21.60;19.23;;;10.40;88.00;;;;;;10743215;32;20063;-75
2023/01/13 16:01:39;;;;;;;20.27;17.42;;;10.40;87.60;;;;;;10751009;33;20083;-75
2023/01/13 16:07:41;;;;;;;19.17;17.02;;;10.50;87.20;;;;;;10750461;33;20304;-75
2023/01/13 16:13:43;;;;;;;27.67;19.42;;;10.30;86.80;;;;;;10737165;32;20040;-75
2023/01/13 16:19:45;;;;;;;16.58;14.80;;;10.20;86.80;;;;;;10753867;33;20025;-75
2023/01/13 16:25:48;;;;;;;21.33;16.80;;;10.20;86.70;;;;;;10969656;27;20030;-75
2023/01/13 16:31:51;;;;;;;19.15;14.65;;;10.20;86.40;;;;;;10979819;32;20054;-75
2023/01/13 16:37:57;;;;;;;19.62;17.35;;;9.80;86.40;;;;;;10982234;32;20011;-75
2023/01/13 16:44:04;;;;;;;22.13;16.35;;;9.50;86.70;;;;;;10981236;32;20023;-75
2023/01/13 16:50:34;;;;;;;26.33;21.67;;;9.20;87.00;;;;;;10981930;32;20038;-75
2023/01/13 16:56:36;;;;;;;22.40;19.52;;;9.00;87.50;;;;;;10980175;32;20329;-75
2023/01/13 17:02:38;;;;;;;33.97;28.10;;;9.20;87.40;;;;;;10981341;32;20015;-75
2023/01/13 17:08:42;;;;;;;29.42;21.65;;;9.30;87.20;;;;;;10975730;32;20038;-75
2023/01/13 17:14:44;;;;;;;32.05;23.65;;;9.30;86.70;;;;;;10955233;32;20041;-74
2023/01/13 17:20:46;;;;;;;30.00;25.48;;;9.10;86.90;;;;;;10940186;32;20058;-74
2023/01/13 17:26:51;;;;;;;27.23;23.40;;;9.30;87.10;;;;;;10942005;32;20027;-74
2023/01/13 17:32:54;;;;;;;27.27;22.17;;;9.40;87.10;;;;;;10942695;32;20019;-73
2023/01/13 17:38:56;;;;;;;28.98;24.23;;;9.00;86.90;;;;;;10941028;32;20041;-74
2023/01/13 17:44:58;;;;;;;30.55;21.90;;;8.80;87.40;;;;;;10940781;32;20049;-73
2023/01/13 17:51:00;;;;;;;25.98;21.77;;;8.90;87.20;;;;;;10942122;32;20030;-74
2023/01/13 17:57:02;;;;;;;26.92;23.62;;;9.10;86.60;;;;;;10942019;32;20045;-73
2023/01/13 18:03:04;;;;;;;30.45;27.17;;;8.80;86.50;;;;;;10940894;32;20038;-74
2023/01/13 18:09:06;;;;;;;36.17;29.52;;;8.90;86.70;;;;;;10941490;32;20015;-74
2023/01/13 18:15:08;;;;;;;42.70;35.83;;;9.20;86.00;;;;;;10940973;32;20038;-73
2023/01/13 18:27:49;;;;;;;34.42;29.12;;;9.30;85.10;;;;;;10786768;33;20025;-73
2023/01/13 18:33:51;;;;;;;29.50;26.52;;;9.20;85.00;;;;;;10784676;33;20457;-73
2023/01/13 18:40:00;;;;;;;34.72;28.52;;;9.00;85.00;;;;;;10786671;33;20043;-73
2023/01/13 18:46:02;;;;;;;40.20;31.40;;;8.70;85.20;;;;;;10784516;33;20440;-73
2023/01/13 18:52:04;;;;;;;41.95;31.33;;;8.50;85.80;;;;;;10786600;33;20354;-73
2023/01/13 18:58:06;;;;;;;40.72;33.45;;;8.70;85.60;;;;;;10791331;33;20475;-73
2023/01/13 19:04:14;;;;;;;36.83;29.00;;;8.80;85.70;;;;;;10843347;32;20029;-73
2023/01/13 19:10:17;;;;;;;35.57;30.40;;;9.00;85.20;;;;;;10792439;33;20016;-73
2023/01/13 19:16:22;;;;;;;43.63;33.85;;;9.00;84.80;;;;;;10792389;33;20008;-73
2023/01/13 19:22:29;;;;;;;35.92;29.70;;;8.80;84.70;;;;;;10792059;33;20051;-74
2023/01/13 19:28:32;;;;;;;44.75;37.72;;;8.30;84.60;;;;;;10842466;32;20020;-73
2023/01/13 19:34:34;;;;;;;36.88;29.35;;;8.10;85.20;;;;;;10789262;33;20047;-73
2023/01/13 19:40:37;;;;;;;33.15;27.55;;;8.30;85.60;;;;;;10791640;33;20395;-73
2023/01/13 19:46:38;;;;;;;35.58;29.25;;;8.60;85.20;;;;;;10829300;32;20055;-73
2023/01/13 19:52:41;;;;;;;31.62;25.37;;;8.60;84.80;;;;;;10838594;32;20048;-73
2023/01/13 19:58:49;;;;;;;31.52;24.45;;;8.30;84.80;;;;;;10790960;33;20382;-73
2023/01/13 20:04:54;;;;;;;27.00;23.38;;;8.20;85.30;;;;;;10841323;32;20021;-73
2023/01/13 20:11:20;;;;;;;23.87;21.30;;;8.20;85.00;;;;;;10841307;32;20044;-73
2023/01/13 20:17:20;;;;;;;30.90;27.62;;;8.10;85.40;;;;;;10790416;33;20054;-73
2023/01/13 20:23:21;;;;;;;25.60;21.87;;;8.00;84.90;;;;;;10790384;33;20024;-73
2023/01/13 20:29:23;;;;;;;28.50;25.27;;;7.90;85.00;;;;;;10786279;33;20349;-73
2023/01/13 20:35:57;;;;;;;32.83;27.45;;;7.80;85.30;;;;;;10790114;33;20382;-73
2023/01/13 20:48:21;;;;;;;26.92;21.58;;;8.30;84.60;;;;;;10839946;32;20032;-73
2023/01/13 20:54:25;;;;;;;34.20;24.65;;;8.20;84.20;;;;;;10789425;33;20044;-74
2023/01/13 21:00:27;;;;;;;30.05;22.45;;;8.20;84.30;;;;;;10789267;33;20031;-73
2023/01/13 21:06:47;;;;;;;22.17;19.87;;;8.20;84.30;;;;;;10789041;33;20032;-73
2023/01/13 21:19:10;;;;;;;21.98;16.92;;;7.80;84.50;;;;;;10785515;32;20054;-73
2023/01/13 21:25:32;;;;;;;19.58;17.48;;;7.40;84.60;;;;;;10788527;33;20043;-73
2023/01/13 21:31:34;;;;;;;35.67;27.80;;;7.20;85.30;;;;;;10839039;32;20040;-73
2023/01/13 21:37:39;;;;;;;22.13;19.40;;;7.30;85.80;;;;;;10788499;33;20326;-73
2023/01/13 21:50:11;;;;;;;30.55;24.60;;;7.60;85.40;;;;;;10788934;33;20027;-73
2023/01/13 21:56:18;;;;;;;26.35;23.52;;;7.80;85.40;;;;;;10787958;33;20021;-73
2023/01/13 22:02:30;;;;;;;26.15;20.25;;;7.80;84.80;;;;;;10787929;33;20052;-75
2023/01/13 22:08:39;;;;;;;27.87;22.90;;;7.30;85.20;;;;;;10787684;33;20051;-75
2023/01/13 22:14:41;;;;;;;29.67;26.05;;;7.40;85.60;;;;;;10785507;33;20379;-75
2023/01/13 22:20:42;;;;;;;28.60;22.83;;;7.30;85.40;;;;;;10787425;33;20329;-75
2023/01/13 22:26:45;;;;;;;46.47;25.48;;;7.30;85.30;;;;;;10837811;32;20043;-73
2023/01/13 22:32:47;;;;;;;29.67;23.08;;;7.40;85.40;;;;;;10844717;32;20029;-73
2023/01/13 22:38:55;;;;;;;25.48;22.02;;;7.50;85.20;;;;;;10793728;33;20025;-73
2023/01/13 22:44:57;;;;;;;29.50;22.70;;;7.50;85.00;;;;;;10793491;33;20031;-73
2023/01/13 22:51:10;;;;;;;25.90;21.10;;;7.60;84.90;;;;;;10793299;33;20025;-73
2023/01/13 22:57:12;;;;;;;24.02;19.15;;;7.40;85.00;;;;;;10843955;32;20086;-73
2023/01/13 23:03:14;;;;;;;31.05;26.27;;;7.50;84.70;;;;;;10843861;32;20338;-73
2023/01/13 23:09:16;;;;;;;31.40;24.52;;;7.60;84.70;;;;;;10792760;33;20066;-73
2023/01/13 23:15:19;;;;;;;25.08;21.00;;;7.50;84.60;;;;;;10792715;33;20020;-73
2023/01/13 23:21:24;;;;;;;27.30;23.08;;;7.50;84.70;;;;;;10792223;32;20083;-73
2023/01/13 23:27:26;;;;;;;30.60;26.65;;;7.40;84.60;;;;;;10790018;33;20067;-73
2023/01/13 23:33:28;;;;;;;31.67;27.33;;;7.40;84.90;;;;;;10790002;33;20047;-73
2023/01/13 23:39:30;;;;;;;29.60;25.40;;;7.00;84.40;;;;;;10839925;32;20036;-73
2023/01/13 23:45:33;;;;;;;25.55;21.27;;;6.80;85.20;;;;;;10789733;33;20047;-73
2023/01/13 23:51:35;;;;;;;23.75;20.30;;;6.90;85.10;;;;;;10788656;33;20043;-73
2023/01/13 23:57:37;;;;;;;21.30;18.92;;;7.10;84.80;;;;;;10840175;32;20346;-73
